Time,TemperatureF,DewpointF,PressureIn,WindDirection,WindDirectionDegrees,WindSpeedMPH,WindSpeedGustMPH,Humidity,HourlyPrecipIn,Conditions,Clouds,dailyrainin,SolarRadiationWatts/m^2,SoftwareType,DateUTC
2013-04-02 00:00:00,18.0,8.0,-100.00,South,180,0.0,-999.0,65,-99.99,,,-99.99,0.000000,,2013-04-02 04:00:00,
2013-04-02 00:43:00,18.0,8.0,-100.00,South,180,0.0,-999.0,65,-99.99,,,-99.99,0.000000,,2013-04-02 04:43:00,
2013-04-02 00:53:00,18.0,8.0,-100.00,South,180,0.0,-999.0,65,-99.99,,,-99.99,0.000000,,2013-04-02 04:53:00,
2013-04-02 01:00:00,16.0,7.0,-100.00,West,270,1.0,-999.0,69,-99.99,,,-99.99,0.000000,,2013-04-02 05:00:00,
2013-04-02 01:43:00,16.0,7.0,-100.00,West,270,1.0,-999.0,69,-99.99,,,-99.99,0.000000,,2013-04-02 05:43:00,
2013-04-02 01:52:00,16.0,7.0,-100.00,West,270,1.0,-999.0,69,-99.99,,,-99.99,0.000000,,2013-04-02 05:52:00,
2013-04-02 02:00:00,19.0,10.0,-100.00,WSW,247,1.0,-999.0,67,-99.99,,,-99.99,0.000000,,2013-04-02 06:00:00,
2013-04-02 02:42:00,19.0,10.0,-100.00,WSW,247,1.0,-999.0,67,-99.99,,,-99.99,0.000000,,2013-04-02 06:42:00,
2013-04-02 02:52:00,19.0,10.0,-100.00,WSW,247,1.0,-999.0,67,-99.99,,,-99.99,0.000000,,2013-04-02 06:52:00,
2013-04-02 04:00:00,20.0,14.0,-100.00,West,270,1.0,-999.0,78,-99.99,,,-99.99,0.000000,,2013-04-02 08:00:00,
2013-04-02 04:43:00,20.0,14.0,-100.00,West,270,1.0,-999.0,78,-99.99,,,-99.99,0.000000,,2013-04-02 08:43:00,
2013-04-02 04:52:00,20.0,14.0,-100.00,West,270,1.0,-999.0,78,-99.99,,,-99.99,0.000000,,2013-04-02 08:52:00,
2013-04-02 05:00:00,19.0,12.0,-100.00,WSW,247,1.0,-999.0,76,-99.99,,,-99.99,0.000000,,2013-04-02 09:00:00,
2013-04-02 05:43:00,19.0,12.0,-100.00,WSW,247,1.0,-999.0,76,-99.99,,,-99.99,0.000000,,2013-04-02 09:43:00,
2013-04-02 05:53:00,19.0,12.0,-100.00,WSW,247,1.0,-999.0,76,-99.99,,,-99.99,0.000000,,2013-04-02 09:53:00,
2013-04-02 06:00:00,19.0,11.0,-100.00,West,270,1.0,-999.0,71,-99.99,,,-99.99,0.000000,,2013-04-02 10:00:00,
2013-04-02 06:43:00,19.0,11.0,-100.00,West,270,1.0,-999.0,71,-99.99,,,-99.99,0.000000,,2013-04-02 10:43:00,
2013-04-02 06:52:00,19.0,11.0,-100.00,West,270,1.0,-999.0,71,-99.99,,,-99.99,0.000000,,2013-04-02 10:52:00,
2013-04-02 07:00:00,19.0,11.0,-100.00,West,270,1.0,-999.0,71,-99.99,,,-99.99,0.000000,,2013-04-02 11:00:00,
2013-04-02 07:43:00,19.0,11.0,-100.00,West,270,1.0,-999.0,71,-99.99,,,-99.99,0.000000,,2013-04-02 11:43:00,
2013-04-02 07:53:00,19.0,11.0,-100.00,West,270,1.0,-999.0,71,-99.99,,,-99.99,0.000000,,2013-04-02 11:53:00,
2013-04-02 09:00:00,18.0,10.0,-100.00,West,270,1.0,-999.0,68,-99.99,,,-99.99,83.519997,,2013-04-02 13:00:00,
2013-04-02 09:42:00,18.0,10.0,-100.00,West,270,1.0,-999.0,68,-99.99,,,-99.99,83.519997,,2013-04-02 13:42:00,
2013-04-02 09:52:00,18.0,10.0,-100.00,West,270,1.0,-999.0,68,-99.99,,,-99.99,83.519997,,2013-04-02 13:52:00,
2013-04-02 10:00:00,24.0,13.0,-100.00,NW,315,2.0,-999.0,61,-99.99,,,-99.99,247.080002,,2013-04-02 14:00:00,
2013-04-02 10:43:00,24.0,13.0,-100.00,NW,315,2.0,-999.0,61,-99.99,,,-99.99,247.080002,,2013-04-02 14:43:00,
2013-04-02 10:52:00,24.0,13.0,-100.00,NW,315,2.0,-999.0,61,-99.99,,,-99.99,247.080002,,2013-04-02 14:52:00,
2013-04-02 11:00:00,27.0,14.0,-100.00,West,270,5.0,-999.0,56,-99.99,,,-99.99,401.359985,,2013-04-02 15:00:00,
2013-04-02 11:43:00,27.0,14.0,-100.00,West,270,5.0,-999.0,56,-99.99,,,-99.99,401.359985,,2013-04-02 15:43:00,
2013-04-02 11:58:00,27.0,14.0,-100.00,West,270,5.0,-999.0,56,-99.99,,,-99.99,401.359985,,2013-04-02 15:58:00,
2013-04-02 13:00:00,30.0,12.0,-100.00,West,270,6.0,-999.0,46,-99.99,,,-99.99,759.799988,,2013-04-02 17:00:00,
2013-04-02 13:43:00,30.0,12.0,-100.00,West,270,6.0,-999.0,46,-99.99,,,-99.99,759.799988,,2013-04-02 17:43:00,
2013-04-02 13:55:00,30.0,12.0,-100.00,West,270,6.0,-999.0,46,-99.99,,,-99.99,759.799988,,2013-04-02 17:55:00,
2013-04-02 15:00:00,32.0,13.0,-100.00,WSW,247,5.0,-999.0,43,-99.99,,,-99.99,774.880005,,2013-04-02 19:00:00,
2013-04-02 15:47:00,32.0,13.0,-100.00,WSW,247,5.0,-999.0,43,-99.99,,,-99.99,774.880005,,2013-04-02 19:47:00,
2013-04-02 15:57:00,32.0,13.0,-100.00,WSW,247,5.0,-999.0,43,-99.99,,,-99.99,774.880005,,2013-04-02 19:57:00,
2013-04-02 16:00:00,33.0,13.0,-100.00,WSW,247,5.0,-999.0,42,-99.99,,,-99.99,720.359985,,2013-04-02 20:00:00,
2013-04-02 16:44:00,33.0,13.0,-100.00,WSW,247,5.0,-999.0,42,-99.99,,,-99.99,720.359985,,2013-04-02 20:44:00,
2013-04-02 16:54:00,33.0,13.0,-100.00,WSW,247,5.0,-999.0,42,-99.99,,,-99.99,720.359985,,2013-04-02 20:54:00,
2013-04-02 18:00:00,30.0,10.0,-100.00,West,270,6.0,-999.0,43,-99.99,,,-99.99,437.320007,,2013-04-02 22:00:00,
2013-04-02 18:44:00,30.0,10.0,-100.00,West,270,6.0,-999.0,43,-99.99,,,-99.99,437.320007,,2013-04-02 22:44:00,
2013-04-02 18:54:00,30.0,10.0,-100.00,West,270,6.0,-999.0,43,-99.99,,,-99.99,437.320007,,2013-04-02 22:54:00,
2013-04-02 19:00:00,28.0,11.0,-100.00,SW,225,7.0,-999.0,48,-99.99,,,-99.99,251.720001,,2013-04-02 23:00:00,
2013-04-02 19:43:00,28.0,11.0,-100.00,SW,225,7.0,-999.0,48,-99.99,,,-99.99,251.720001,,2013-04-02 23:43:00,
2013-04-02 19:54:00,28.0,11.0,-100.00,SW,225,7.0,-999.0,48,-99.99,,,-99.99,251.720001,,2013-04-02 23:54:00,
2013-04-02 20:00:00,26.0,10.0,-100.00,SW,225,6.0,-999.0,50,-99.99,,,-99.99,75.400002,,2013-04-03 00:00:00,
2013-04-02 20:47:00,26.0,10.0,-100.00,SW,225,6.0,-999.0,50,-99.99,,,-99.99,75.400002,,2013-04-03 00:47:00,
2013-04-02 21:00:00,24.0,9.0,-100.00,West,270,4.0,-999.0,53,-99.99,,,-99.99,3.480000,,2013-04-03 01:00:00,
2013-04-02 21:43:00,24.0,9.0,-100.00,West,270,4.0,-999.0,53,-99.99,,,-99.99,3.480000,,2013-04-03 01:43:00,
2013-04-02 21:53:00,24.0,9.0,-100.00,West,270,4.0,-999.0,53,-99.99,,,-99.99,3.480000,,2013-04-03 01:53:00,
2013-04-02 22:00:00,24.0,9.0,-100.00,WNW,292,2.0,-999.0,52,-99.99,,,-99.99,0.000000,,2013-04-03 02:00:00,
2013-04-02 22:44:00,24.0,9.0,-100.00,WNW,292,2.0,-999.0,52,-99.99,,,-99.99,0.000000,,2013-04-03 02:44:00,
2013-04-02 22:53:00,24.0,9.0,-100.00,WNW,292,2.0,-999.0,52,-99.99,,,-99.99,0.000000,,2013-04-03 02:53:00,
2013-04-02 23:00:00,21.0,9.0,-100.00,WNW,292,0.0,-999.0,58,-99.99,,,-99.99,0.000000,,2013-04-03 03:00:00,
2013-04-02 23:44:00,21.0,9.0,-100.00,WNW,292,0.0,-999.0,58,-99.99,,,-99.99,0.000000,,2013-04-03 03:44:00,
2013-04-02 23:54:00,21.0,9.0,-100.00,WNW,292,0.0,-999.0,58,-99.99,,,-99.99,0.000000,,2013-04-03 03:54:00,